Time;durP1;ratioP1;P1;durP2;ratioP2;P2;SDS_P1;SDS_P2;PMS_P1;PMS_P2;Temp;Humidity;BMP_temperature;BMP_pressure;BME280_temperature;BME280_humidity;BME280_pressure;Samples;Min_cycle;Max_cycle;Signal;HPM_P1;HPM_P2
2021/12/12 00:02:18;;;;;;;8.95;5.90;;;4.80;99.90;;;;;;5072321;28;20052;-66
2021/12/12 00:04:47;;;;;;;17.25;8.52;;;3.10;99.90;;;;;;5071380;28;20054;-65
2021/12/12 00:07:20;;;;;;;9.95;6.97;;;4.00;99.90;;;;;;5071838;28;20021;-65
2021/12/12 00:09:48;;;;;;;8.77;5.95;;;5.00;99.90;;;;;;5071972;28;20036;-66
2021/12/12 00:12:22;;;;;;;11.15;7.00;;;3.40;99.90;;;;;;5071479;28;20028;-65
2021/12/12 00:14:48;;;;;;;7.78;5.70;;;3.40;99.90;;;;;;5070907;28;20071;-65
2021/12/12 00:17:14;;;;;;;7.22;5.18;;;3.40;99.90;;;;;;5071985;28;20052;-66
2021/12/12 00:19:40;;;;;;;7.35;5.07;;;3.90;99.90;;;;;;5071851;28;20032;-67
2021/12/12 00:22:11;;;;;;;11.48;7.07;;;3.50;99.90;;;;;;5071571;28;20120;-65
2021/12/12 00:24:39;;;;;;;9.85;6.45;;;3.20;99.90;;;;;;5071407;28;20029;-66
2021/12/12 00:27:05;;;;;;;11.05;6.30;;;3.80;99.90;;;;;;5071780;28;20035;-65
2021/12/12 00:29:31;;;;;;;10.05;6.43;;;4.10;99.90;;;;;;5071117;28;20029;-65
2021/12/12 00:32:00;;;;;;;13.55;7.13;;;4.30;99.90;;;;;;5071985;28;20024;-65
2021/12/12 00:34:35;;;;;;;7.25;5.90;;;3.20;99.90;;;;;;5070919;28;20082;-67
2021/12/12 00:37:02;;;;;;;6.65;5.78;;;4.60;99.90;;;;;;5071850;28;20104;-64
2021/12/12 00:39:31;;;;;;;9.77;6.10;;;4.00;99.90;;;;;;5071931;28;20367;-66
2021/12/12 00:42:02;;;;;;;7.82;5.57;;;3.30;99.90;;;;;;5071920;28;20020;-66
2021/12/12 00:44:30;;;;;;;10.88;7.25;;;3.80;99.90;;;;;;5071128;28;20103;-66
2021/12/12 00:47:00;;;;;;;7.47;6.35;;;4.20;99.90;;;;;;5071214;28;20028;-62
2021/12/12 00:49:28;;;;;;;12.15;7.00;;;3.80;99.90;;;;;;5071292;28;20037;-65
2021/12/12 00:51:55;;;;;;;9.45;7.05;;;3.70;99.90;;;;;;5071338;28;20042;-65
2021/12/12 00:54:21;;;;;;;10.32;7.53;;;3.70;99.90;;;;;;5070586;28;20509;-64
2021/12/12 00:56:47;;;;;;;13.55;7.07;;;3.40;99.90;;;;;;5070838;28;20033;-64
2021/12/12 00:59:13;;;;;;;8.68;6.45;;;3.80;99.90;;;;;;5071171;28;20153;-65
2021/12/12 01:01:44;;;;;;;9.95;7.18;;;3.60;99.90;;;;;;5071143;28;20046;-66
2021/12/12 01:04:18;;;;;;;8.27;6.72;;;3.60;99.90;;;;;;5071082;28;20017;-65
2021/12/12 01:06:45;;;;;;;10.27;8.18;;;4.00;99.90;;;;;;5071108;28;20040;-67
2021/12/12 01:09:20;;;;;;;12.30;7.53;;;3.90;99.90;;;;;;5071183;28;20024;-66
2021/12/12 01:11:50;;;;;;;10.35;7.47;;;3.00;99.90;;;;;;5071180;28;20027;-66
2021/12/12 01:14:19;;;;;;;11.15;7.40;;;3.20;99.90;;;;;;5070709;28;20378;-66
2021/12/12 01:16:48;;;;;;;9.30;7.30;;;3.80;99.90;;;;;;5070853;28;20071;-66
2021/12/12 01:19:20;;;;;;;11.07;7.78;;;4.30;99.90;;;;;;5070860;28;20059;-66
2021/12/12 01:21:51;;;;;;;9.73;7.45;;;4.70;99.90;;;;;;5071148;28;20107;-66
2021/12/12 01:24:25;;;;;;;8.52;6.97;;;3.70;99.90;;;;;;5070605;28;20025;-63
2021/12/12 01:26:53;;;;;;;11.15;7.63;;;3.80;99.90;;;;;;5069560;28;20024;-67
2021/12/12 01:29:19;;;;;;;9.95;7.50;;;;;;;;;;5069824;28;20109;-66
2021/12/12 01:31:47;;;;;;;9.00;7.05;;;4.20;99.90;;;;;;5071364;28;20053;-64
2021/12/12 01:34:20;;;;;;;8.98;6.57;;;3.60;99.90;;;;;;5070765;28;20398;-65
2021/12/12 01:39:22;;;;;;;11.93;7.23;;;3.80;99.90;;;;;;5071000;28;20108;-65
2021/12/12 01:41:59;;;;;;;10.53;7.23;;;3.80;99.90;;;;;;5073019;28;20024;-66
2021/12/12 01:44:29;;;;;;;9.35;7.00;;;4.10;99.90;;;;;;5074292;28;20308;-66
2021/12/12 01:47:12;;;;;;;9.32;7.07;;;3.50;99.90;;;;;;5074445;28;20455;-64
2021/12/12 01:49:39;;;;;;;;;;;4.00;99.90;;;;;;5074592;28;20573;-65
2021/12/12 01:52:08;;;;;;;11.95;6.97;;;4.50;99.90;;;;;;5076274;28;19935;-65
2021/12/12 01:54:44;;;;;;;10.18;7.22;;;4.10;99.90;;;;;;5083017;28;20071;-65
2021/12/12 01:57:16;;;;;;;8.32;6.85;;;2.30;99.90;;;;;;5075324;28;20025;-64
2021/12/12 01:59:43;;;;;;;9.88;6.43;;;3.80;99.90;;;;;;5074523;28;20016;-64
2021/12/12 02:02:19;;;;;;;7.45;6.40;;;3.40;99.90;;;;;;5074180;28;20017;-65
2021/12/12 02:04:52;;;;;;;9.23;7.07;;;3.80;99.90;;;;;;5073402;28;20024;-66
2021/12/12 02:07:25;;;;;;;9.57;7.32;;;4.00;99.90;;;;;;5074208;28;20025;-66
2021/12/12 02:09:52;;;;;;;7.97;6.38;;;4.30;99.90;;;;;;5074281;28;20103;-65
2021/12/12 02:12:21;;;;;;;9.07;6.70;;;3.80;99.90;;;;;;5074325;28;20029;-65
2021/12/12 02:14:47;;;;;;;7.63;6.25;;;3.90;99.90;;;;;;5043980;28;20060;-66
2021/12/12 02:17:30;;;;;;;7.72;6.50;;;2.50;99.90;;;;;;5040073;28;20048;-66
2021/12/12 02:20:08;;;;;;;;;;;4.30;99.90;;;;;;5054045;28;20047;-65
2021/12/12 02:36:11;;;;;;;7.85;6.38;;;3.90;99.90;;;;;;5053711;28;20075;-64
2021/12/12 02:38:38;;;;;;;8.40;6.30;;;4.20;99.90;;;;;;5069780;23;20107;-69
2021/12/12 02:41:09;;;;;;;9.20;6.38;;;3.20;99.90;;;;;;5047607;28;20033;-67
2021/12/12 02:43:44;;;;;;;10.98;6.93;;;3.80;99.90;;;;;;5053841;28;20437;-69
2021/12/12 02:46:14;;;;;;;9.73;6.40;;;3.90;99.90;;;;;;5058482;28;20025;-67
2021/12/12 02:48:42;;;;;;;8.82;6.03;;;4.00;99.90;;;;;;5054504;28;20068;-67
2021/12/12 02:51:12;;;;;;;9.02;6.28;;;4.60;99.90;;;;;;5034382;28;20368;-66
2021/12/12 02:53:46;;;;;;;8.27;5.80;;;4.20;99.90;;;;;;5033124;28;20403;-68
2021/12/12 02:56:18;;;;;;;12.27;6.78;;;3.90;99.90;;;;;;5032744;28;20112;-68
2021/12/12 02:58:46;;;;;;;8.27;6.25;;;3.70;99.90;;;;;;5033334;28;20021;-67
2021/12/12 03:01:20;;;;;;;9.70;6.57;;;4.10;99.90;;;;;;5033196;28;20033;-70
2021/12/12 03:03:48;;;;;;;8.65;6.20;;;3.30;99.90;;;;;;5033078;28;20040;-67
2021/12/12 03:06:17;;;;;;;10.95;7.38;;;3.60;99.90;;;;;;5033027;28;20115;-67
2021/12/12 03:08:46;;;;;;;8.70;7.50;;;3.90;99.90;;;;;;5031765;28;20517;-67
2021/12/12 03:11:12;;;;;;;10.43;7.22;;;3.60;99.90;;;;;;5033544;28;20388;-69
2021/12/12 03:13:40;;;;;;;8.57;6.95;;;4.10;99.90;;;;;;5023439;28;20025;-71
2021/12/12 03:16:07;;;;;;;10.73;7.22;;;3.40;99.90;;;;;;5021889;28;20041;-71
2021/12/12 03:18:41;;;;;;;9.75;6.97;;;2.80;99.90;;;;;;5021220;28;20013;-73
2021/12/12 03:21:15;;;;;;;9.63;7.35;;;3.20;99.90;;;;;;5022329;28;20028;-74
2021/12/12 03:23:48;;;;;;;11.30;7.65;;;3.60;99.90;;;;;;5022391;28;20053;-73
2021/12/12 03:26:15;;;;;;;12.95;8.13;;;3.60;99.90;;;;;;5021421;28;20033;-73
2021/12/12 03:28:44;;;;;;;10.13;8.30;;;3.40;99.90;;;;;;5024112;28;20017;-74
2021/12/12 03:31:18;;;;;;;11.20;7.82;;;3.40;99.90;;;;;;5027162;28;20080;-75
2021/12/12 03:33:44;;;;;;;9.55;7.63;;;;;;;;;;5025267;28;20026;-73
2021/12/12 03:36:12;;;;;;;11.57;7.78;;;3.50;99.90;;;;;;5021745;28;20041;-73
2021/12/12 03:38:42;;;;;;;11.70;7.80;;;4.20;99.90;;;;;;5023975;28;20021;-73
2021/12/12 03:41:11;;;;;;;11.93;7.95;;;3.80;99.90;;;;;;5021511;28;20026;-73
2021/12/12 03:43:37;;;;;;;9.57;7.50;;;3.60;99.90;;;;;;5052679;28;20025;-73
2021/12/12 03:46:10;;;;;;;11.90;7.13;;;3.80;99.90;;;;;;5021581;28;20065;-74
2021/12/12 03:48:37;;;;;;;8.13;6.57;;;3.70;99.90;;;;;;5020238;28;20030;-74
2021/12/12 03:51:05;;;;;;;8.55;7.03;;;3.60;99.90;;;;;;5024729;28;20022;-75
2021/12/12 03:53:33;;;;;;;8.38;6.93;;;3.70;99.90;;;;;;5024158;28;20041;-74
2021/12/12 03:55:59;;;;;;;8.73;7.07;;;3.20;99.90;;;;;;5020539;28;20018;-72
2021/12/12 03:58:25;;;;;;;10.50;6.38;;;2.90;99.90;;;;;;5030818;28;20503;-74
2021/12/12 04:00:54;;;;;;;7.88;6.28;;;3.10;99.90;;;;;;5027231;28;20031;-73
2021/12/12 04:03:21;;;;;;;10.57;6.43;;;3.40;99.90;;;;;;5026036;28;20015;-73
2021/12/12 04:05:51;;;;;;;11.32;6.97;;;3.10;99.90;;;;;;5019401;28;20025;-72
2021/12/12 04:08:18;;;;;;;10.48;7.00;;;3.20;99.90;;;;;;5021652;28;20500;-73
2021/12/12 04:10:44;;;;;;;8.90;6.80;;;3.40;99.90;;;;;;5024582;28;20017;-72
2021/12/12 04:13:10;;;;;;;10.65;7.25;;;;;;;;;;5020228;28;20025;-73
2021/12/12 04:15:36;;;;;;;10.98;7.55;;;2.80;99.90;;;;;;5021758;28;20083;-73
2021/12/12 04:18:03;;;;;;;10.52;8.23;;;3.50;99.90;;;;;;5022042;28;20018;-74
2021/12/12 04:20:34;;;;;;;10.40;7.57;;;4.20;99.90;;;;;;5021667;28;20479;-72
2021/12/12 04:23:00;;;;;;;9.13;7.15;;;2.90;99.90;;;;;;5022645;28;20030;-73
2021/12/12 04:25:26;;;;;;;8.90;7.28;;;3.20;99.90;;;;;;5024351;28;20068;-73
2021/12/12 04:27:53;;;;;;;13.07;6.82;;;3.10;99.90;;;;;;5030461;28;20046;-72
2021/12/12 04:30:23;;;;;;;10.80;6.63;;;3.30;99.90;;;;;;5024854;28;20025;-73
2021/12/12 04:32:50;;;;;;;12.02;7.38;;;3.00;99.90;;;;;;5030300;28;20029;-73
2021/12/12 04:35:23;;;;;;;9.35;6.95;;;2.60;99.90;;;;;;5050248;28;20022;-73
2021/12/12 04:37:49;;;;;;;10.55;7.10;;;2.20;99.90;;;;;;5031063;28;20026;-74
2021/12/12 04:40:18;;;;;;;10.45;6.97;;;2.90;99.90;;;;;;5033513;28;20476;-72
2021/12/12 04:42:46;;;;;;;9.95;7.22;;;2.00;99.90;;;;;;5020105;28;20473;-72
2021/12/12 04:45:12;;;;;;;11.10;6.82;;;;;;;;;;5021367;28;20018;-73
2021/12/12 04:50:53;;;;;;;10.05;7.05;;;2.00;99.90;;;;;;5020688;28;20057;-73
2021/12/12 04:53:30;;;;;;;11.57;7.53;;;2.50;99.90;;;;;;5020918;28;20080;-75
2021/12/12 04:56:14;;;;;;;12.30;7.28;;;1.70;99.90;;;;;;5019580;28;20084;-74
2021/12/12 04:59:12;;;;;;;11.75;7.15;;;1.70;99.90;;;;;;5033263;28;20040;-75
2021/12/12 05:02:06;;;;;;;10.57;7.10;;;1.10;99.90;;;;;;5040391;28;20037;-73
2021/12/12 05:04:44;;;;;;;11.52;7.18;;;1.70;99.90;;;;;;5022524;28;20054;-73
2021/12/12 05:07:25;;;;;;;9.30;7.05;;;2.50;99.90;;;;;;5022573;28;20071;-74
2021/12/12 05:09:56;;;;;;;8.45;6.93;;;1.40;99.90;;;;;;5022792;28;20066;-74
2021/12/12 05:12:34;;;;;;;9.57;7.13;;;2.20;99.90;;;;;;5021519;28;20061;-74
2021/12/12 05:15:10;;;;;;;8.73;7.05;;;;;;;;;;5018966;28;20434;-74
2021/12/12 05:17:40;;;;;;;12.55;8.07;;;1.40;99.90;;;;;;5023820;28;20032;-74
2021/12/12 05:20:12;;;;;;;11.98;7.43;;;1.60;99.90;;;;;;5023828;28;20104;-74
2021/12/12 05:22:43;;;;;;;11.52;8.48;;;2.10;99.90;;;;;;5027182;28;20053;-74
2021/12/12 05:25:14;;;;;;;15.43;7.78;;;2.00;99.90;;;;;;5031917;28;20022;-71
2021/12/12 05:27:40;;;;;;;12.35;8.20;;;1.60;99.90;;;;;;5026173;28;20082;-73
2021/12/12 05:30:16;;;;;;;12.15;8.05;;;0.90;99.90;;;;;;5026264;28;20101;-73
2021/12/12 05:32:43;;;;;;;11.95;8.15;;;1.20;99.90;;;;;;5027774;28;20030;-74
2021/12/12 05:35:12;;;;;;;11.68;7.55;;;1.60;99.90;;;;;;5024786;28;20121;-73
2021/12/12 05:37:38;;;;;;;12.30;7.88;;;;;;;;;;5025703;28;20026;-73
2021/12/12 05:40:09;;;;;;;13.23;7.63;;;1.30;99.90;;;;;;5025479;28;20028;-72
2021/12/12 05:42:36;;;;;;;12.27;7.85;;;1.00;99.90;;;;;;5026698;28;20018;-72
2021/12/12 05:45:04;;;;;;;12.98;7.85;;;1.60;99.90;;;;;;5025092;28;20040;-72
2021/12/12 05:47:30;;;;;;;12.55;7.95;;;0.80;99.90;;;;;;5028565;28;20025;-72
2021/12/12 05:49:57;;;;;;;12.93;7.88;;;0.70;99.90;;;;;;5021841;28;20326;-71
2021/12/12 05:52:23;;;;;;;11.40;7.97;;;0.80;99.90;;;;;;5023590;28;20018;-72
2021/12/12 05:54:50;;;;;;;12.80;7.95;;;0.80;99.90;;;;;;5022509;28;20021;-72
2021/12/12 05:57:22;;;;;;;12.35;7.85;;;;;;;;;;5023040;28;20030;-72
2021/12/12 05:59:48;;;;;;;10.57;7.40;;;0.50;99.90;;;;;;5022920;28;20048;-74
2021/12/12 06:02:14;;;;;;;10.18;7.35;;;0.60;99.90;;;;;;5024480;28;20053;-73
2021/12/12 06:04:40;;;;;;;10.65;7.93;;;0.40;99.90;;;;;;5022555;28;20065;-72
2021/12/12 06:07:10;;;;;;;16.58;8.43;;;0.50;99.90;;;;;;5023023;28;20483;-72
2021/12/12 06:09:37;;;;;;;11.40;8.15;;;0.80;99.90;;;;;;5024162;28;20029;-71
2021/12/12 06:12:06;;;;;;;14.45;8.23;;;1.00;99.90;;;;;;5023249;28;20018;-72
2021/12/12 06:14:33;;;;;;;11.75;7.95;;;0.60;99.90;;;;;;5015761;28;20148;-76
2021/12/12 06:17:01;;;;;;;11.45;7.78;;;0.90;99.90;;;;;;5022260;28;20147;-75
2021/12/12 06:19:30;;;;;;;12.45;7.90;;;;;;;;;;5024953;28;20021;-76
2021/12/12 06:21:59;;;;;;;11.73;8.43;;;0.20;99.90;;;;;;5022218;28;20518;-76
2021/12/12 06:24:26;;;;;;;11.57;8.73;;;0.20;99.90;;;;;;5023413;28;20032;-75
2021/12/12 06:26:53;;;;;;;14.57;9.10;;;0.00;99.90;;;;;;5021319;28;20032;-76
2021/12/12 06:29:20;;;;;;;15.10;8.73;;;0.80;99.90;;;;;;5022743;28;20088;-76
2021/12/12 06:31:49;;;;;;;18.40;8.48;;;0.30;99.90;;;;;;5022864;28;20028;-76
2021/12/12 06:34:16;;;;;;;13.02;8.90;;;0.60;99.90;;;;;;5021860;28;20022;-75
2021/12/12 06:36:43;;;;;;;12.90;8.50;;;0.30;99.90;;;;;;5023412;28;20076;-76
2021/12/12 06:39:11;;;;;;;14.57;9.30;;;0.40;99.90;;;;;;5022386;28;20125;-76
2021/12/12 06:41:37;;;;;;;13.32;8.90;;;0.00;99.90;;;;;;5023901;28;20075;-78
2021/12/12 06:44:05;;;;;;;20.50;8.82;;;0.20;99.90;;;;;;5021458;28;20068;-76
2021/12/12 06:46:31;;;;;;;14.65;9.40;;;0.20;99.90;;;;;;5021499;28;20029;-76
2021/12/12 06:48:59;;;;;;;15.88;8.50;;;0.30;99.90;;;;;;5022443;28;20041;-78
2021/12/12 06:51:27;;;;;;;11.68;8.35;;;0.10;99.90;;;;;;5021378;28;20034;-78
2021/12/12 06:53:53;;;;;;;14.65;9.43;;;-0.20;99.90;;;;;;5023200;28;20357;-78
2021/12/12 06:56:20;;;;;;;16.58;9.13;;;0.10;99.90;;;;;;5022336;28;20041;-77
2021/12/12 06:58:49;;;;;;;13.38;8.95;;;0.60;99.90;;;;;;5021276;28;20021;-78
2021/12/12 07:01:22;;;;;;;13.80;8.30;;;-0.30;99.90;;;;;;5036860;28;20220;-72
2021/12/12 07:03:49;;;;;;;14.05;8.52;;;0.40;99.90;;;;;;5045600;28;20101;-72
2021/12/12 07:06:20;;;;;;;11.95;8.43;;;0.80;99.90;;;;;;5033111;28;20041;-71
2021/12/12 07:08:47;;;;;;;12.10;8.50;;;-0.10;99.90;;;;;;5032883;28;20079;-72
2021/12/12 07:11:16;;;;;;;13.95;8.43;;;0.20;99.90;;;;;;5022885;28;20388;-72
2021/12/12 07:13:42;;;;;;;10.70;8.52;;;0.10;99.90;;;;;;5013619;28;20030;-72
2021/12/12 07:16:08;;;;;;;11.15;7.82;;;0.70;99.90;;;;;;5012620;28;20033;-71
2021/12/12 07:18:35;;;;;;;13.02;8.80;;;-0.10;99.90;;;;;;5011602;28;20121;-71
2021/12/12 07:21:06;;;;;;;12.70;8.30;;;0.40;99.90;;;;;;5013382;28;20038;-70
2021/12/12 07:23:33;;;;;;;11.25;8.35;;;0.00;99.90;;;;;;5013398;28;20145;-70
2021/12/12 07:26:02;;;;;;;13.82;9.00;;;0.40;99.90;;;;;;5011171;28;20441;-70
2021/12/12 07:28:29;;;;;;;14.50;8.65;;;0.30;99.90;;;;;;5012511;28;20038;-70
2021/12/12 07:30:59;;;;;;;14.52;8.15;;;0.20;99.90;;;;;;5013269;28;20071;-76
2021/12/12 07:33:27;;;;;;;15.07;9.32;;;0.40;99.90;;;;;;5013334;28;20018;-71
2021/12/12 07:35:58;;;;;;;15.18;9.73;;;0.20;99.90;;;;;;5013926;28;20061;-71
2021/12/12 07:38:24;;;;;;;17.52;10.43;;;1.20;99.90;;;;;;5032321;28;20496;-71
2021/12/12 07:40:50;;;;;;;15.75;10.60;;;2.60;99.90;;;;;;5032679;28;20025;-72
2021/12/12 07:43:16;;;;;;;13.95;8.65;;;2.90;99.90;;;;;;5032610;28;20071;-72
2021/12/12 07:45:42;;;;;;;10.70;8.30;;;4.60;99.90;;;;;;5031971;28;20104;-72
2021/12/12 07:48:10;;;;;;;10.25;7.53;;;5.80;99.90;;;;;;5032065;28;20040;-72
2021/12/12 07:50:38;;;;;;;10.55;7.15;;;6.20;99.90;;;;;;5032715;28;20029;-71
2021/12/12 07:53:05;;;;;;;7.80;6.30;;;6.20;99.90;;;;;;5032562;28;20025;-73
2021/12/12 07:55:32;;;;;;;10.40;6.90;;;7.30;99.90;;;;;;5031579;28;20037;-72
2021/12/12 07:57:57;;;;;;;7.00;6.18;;;7.80;99.90;;;;;;5032491;28;20039;-74
2021/12/12 08:00:25;;;;;;;8.48;6.72;;;8.00;99.90;;;;;;5037250;28;20073;-72
2021/12/12 08:02:54;;;;;;;8.55;6.00;;;7.50;99.90;;;;;;5038105;28;20084;-74
2021/12/12 08:05:27;;;;;;;9.38;6.97;;;8.20;99.90;;;;;;5036238;28;20042;-75
2021/12/12 08:07:53;;;;;;;7.07;6.38;;;7.80;99.90;;;;;;5035047;28;20514;-73
2021/12/12 08:10:18;;;;;;;6.50;5.70;;;8.50;99.90;;;;;;5029652;28;20029;-73
2021/12/12 08:12:45;;;;;;;9.13;6.47;;;8.30;99.90;;;;;;5013333;28;20022;-76
2021/12/12 08:15:14;;;;;;;7.53;6.30;;;7.10;99.90;;;;;;5015321;28;20026;-74
2021/12/12 08:17:42;;;;;;;8.80;7.13;;;7.70;99.90;;;;;;5015755;28;20036;-74
2021/12/12 08:20:09;;;;;;;10.30;6.60;;;6.80;99.90;;;;;;5013592;28;20025;-74
2021/12/12 08:22:35;;;;;;;7.68;6.45;;;7.20;99.90;;;;;;5012319;28;20018;-74
2021/12/12 08:25:05;;;;;;;7.68;5.82;;;6.30;99.90;;;;;;5011363;28;20080;-73
2021/12/12 08:27:31;;;;;;;7.60;5.90;;;6.40;99.90;;;;;;5011963;28;20548;-73
2021/12/12 08:29:59;;;;;;;6.68;5.97;;;6.50;99.90;;;;;;5012241;28;20029;-74
2021/12/12 08:32:26;;;;;;;9.45;6.15;;;7.10;99.90;;;;;;5012111;28;20385;-73
2021/12/12 08:34:52;;;;;;;10.57;6.22;;;6.20;99.90;;;;;;5011744;28;20109;-74
2021/12/12 08:37:18;;;;;;;8.05;6.15;;;5.70;99.90;;;;;;5011763;28;20029;-74
2021/12/12 08:39:45;;;;;;;8.80;6.38;;;5.50;99.90;;;;;;5024293;28;20033;-74
2021/12/12 08:42:13;;;;;;;7.32;5.43;;;5.10;99.90;;;;;;5030083;28;20021;-74
2021/12/12 08:44:39;;;;;;;8.02;5.28;;;4.80;99.90;;;;;;5039211;28;20029;-72
2021/12/12 08:47:08;;;;;;;7.85;5.72;;;4.00;99.90;;;;;;5081242;23;20059;-69
2021/12/12 08:49:37;;;;;;;14.93;8.95;;;4.30;99.90;;;;;;5062638;28;20103;-69
2021/12/12 08:52:11;;;;;;;12.43;7.85;;;4.10;99.90;;;;;;5071369;28;20025;-69
2021/12/12 08:54:40;;;;;;;9.48;6.32;;;3.70;99.90;;;;;;5070507;28;20020;-70
2021/12/12 08:57:31;;;;;;;10.75;6.60;;;3.60;99.90;;;;;;5071095;28;20032;-69
2021/12/12 08:59:59;;;;;;;9.52;6.13;;;3.60;99.90;;;;;;5031901;28;20026;-71
2021/12/12 09:02:25;;;;;;;5.78;4.57;;;3.00;99.90;;;;;;5031042;28;20108;-71
2021/12/12 09:05:06;;;;;;;5.95;4.38;;;4.00;99.90;;;;;;5029673;28;20135;-71
2021/12/12 09:07:36;;;;;;;4.90;4.40;;;3.90;99.90;;;;;;5038329;28;20364;-70
2021/12/12 09:10:26;;;;;;;5.78;4.00;;;3.90;99.90;;;;;;5051245;28;20086;-70
2021/12/12 09:13:02;;;;;;;4.30;3.88;;;4.00;99.90;;;;;;5051165;28;20505;-71
2021/12/12 09:15:54;;;;;;;4.85;3.65;;;4.60;99.90;;;;;;5044084;28;20033;-70
2021/12/12 09:18:43;;;;;;;7.88;4.45;;;4.40;99.90;;;;;;5043366;28;20036;-70
2021/12/12 09:21:49;;;;;;;5.68;4.60;;;4.00;99.90;;;;;;5040143;28;20021;-71
2021/12/12 09:24:24;;;;;;;6.38;3.92;;;;;;;;;;5043476;28;20016;-71
2021/12/12 09:26:54;;;;;;;5.05;3.92;;;4.10;99.90;;;;;;5050838;28;20433;-70
2021/12/12 09:29:21;;;;;;;4.82;3.95;;;4.70;99.90;;;;;;5051033;28;20028;-70
2021/12/12 09:31:51;;;;;;;4.32;3.92;;;4.70;99.90;;;;;;5049328;28;20025;-70
2021/12/12 09:34:37;;;;;;;4.82;4.18;;;5.00;99.90;;;;;;5050130;28;20525;-70
2021/12/12 09:37:11;;;;;;;5.10;4.35;;;4.40;99.90;;;;;;5050523;28;20624;-70
2021/12/12 09:39:50;;;;;;;5.47;4.07;;;5.20;99.90;;;;;;5051140;28;20021;-70
2021/12/12 09:42:58;;;;;;;4.28;3.88;;;5.80;99.90;;;;;;5050894;28;20479;-71
2021/12/12 09:45:35;;;;;;;5.10;4.00;;;5.80;99.90;;;;;;5044482;28;20037;-70
2021/12/12 09:51:17;;;;;;;6.88;4.40;;;5.60;99.90;;;;;;5030969;28;20031;-71
2021/12/12 09:54:23;;;;;;;4.40;4.00;;;5.60;99.90;;;;;;5030972;28;20030;-70
2021/12/12 09:57:18;;;;;;;3.60;3.30;;;5.60;99.90;;;;;;5030550;28;20079;-70
2021/12/12 10:00:18;;;;;;;4.13;3.72;;;5.50;99.90;;;;;;5030862;28;20024;-70
2021/12/12 10:02:54;;;;;;;4.40;3.78;;;6.20;99.90;;;;;;5032190;28;20101;-71
2021/12/12 10:05:32;;;;;;;4.70;3.90;;;5.90;99.90;;;;;;5033569;28;20018;-71
2021/12/12 10:08:23;;;;;;;5.35;4.15;;;5.50;99.90;;;;;;5034187;28;20025;-71
2021/12/12 10:11:13;;;;;;;6.40;3.72;;;5.60;99.90;;;;;;5040819;28;20021;-72
2021/12/12 10:13:42;;;;;;;4.95;3.65;;;6.20;99.90;;;;;;5054073;28;20391;-71
2021/12/12 10:16:17;;;;;;;3.95;3.65;;;6.20;99.90;;;;;;5047907;28;20104;-71
2021/12/12 10:18:56;;;;;;;4.60;4.13;;;6.40;99.90;;;;;;5034219;28;20025;-70
2021/12/12 10:22:17;;;;;;;4.97;4.15;;;7.10;99.90;;;;;;5033999;28;20361;-71
2021/12/12 10:24:49;;;;;;;4.82;4.25;;;7.30;99.90;;;;;;4933575;29;20077;-70
2021/12/12 10:27:52;;;;;;;4.15;3.75;;;6.60;99.90;;;;;;4990992;28;20029;-69
2021/12/12 10:30:26;;;;;;;5.57;3.97;;;6.60;99.90;;;;;;5028734;28;20037;-71
2021/12/12 10:33:20;;;;;;;5.50;3.95;;;6.30;99.90;;;;;;5033580;28;20041;-71
2021/12/12 10:35:53;;;;;;;4.00;3.60;;;6.00;99.90;;;;;;5023510;28;20091;-70
2021/12/12 10:38:21;;;;;;;4.82;4.00;;;5.70;99.90;;;;;;5033683;28;20021;-71
2021/12/12 10:40:49;;;;;;;4.30;3.90;;;5.50;99.90;;;;;;5033499;28;20028;-69
2021/12/12 10:43:22;;;;;;;4.00;3.70;;;6.00;99.90;;;;;;5033564;28;20091;-70
2021/12/12 10:46:23;;;;;;;5.68;4.50;;;5.80;99.90;;;;;;5032591;28;20025;-71
2021/12/12 10:49:13;;;;;;;5.32;4.10;;;5.40;99.90;;;;;;4979057;28;20458;-71
2021/12/12 10:51:47;;;;;;;4.60;4.20;;;5.60;99.90;;;;;;5033498;28;20037;-71
2021/12/12 10:54:21;;;;;;;5.47;3.90;;;5.00;99.90;;;;;;5033599;28;20060;-71
2021/12/12 10:56:52;;;;;;;6.03;4.40;;;5.50;99.90;;;;;;5033205;28;20085;-70
2021/12/12 11:00:06;;;;;;;5.22;3.88;;;5.70;99.90;;;;;;5033372;28;20086;-70
2021/12/12 11:02:36;;;;;;;5.18;3.88;;;5.70;99.90;;;;;;4933815;29;20028;-69
2021/12/12 11:05:11;;;;;;;4.40;4.00;;;5.60;99.90;;;;;;4933006;29;20024;-70
2021/12/12 11:07:59;;;;;;;5.13;4.13;;;5.60;99.90;;;;;;4988598;28;20041;-70
2021/12/12 11:10:29;;;;;;;4.85;4.10;;;5.80;99.90;;;;;;5018831;28;20037;-71
2021/12/12 11:13:14;;;;;;;4.40;4.00;;;5.80;99.90;;;;;;5052546;28;20036;-71
2021/12/12 11:15:50;;;;;;;5.18;3.70;;;6.10;99.90;;;;;;5050949;28;20032;-71
2021/12/12 11:18:39;;;;;;;3.90;3.50;;;6.40;99.90;;;;;;5032505;28;20450;-70
2021/12/12 11:21:20;;;;;;;4.28;3.47;;;6.70;99.90;;;;;;5017688;28;20042;-71
2021/12/12 11:24:03;;;;;;;3.97;3.58;;;6.80;99.90;;;;;;5033004;28;20464;-70
2021/12/12 11:26:40;;;;;;;5.88;3.90;;;7.00;99.90;;;;;;5032184;28;20029;-71
2021/12/12 11:29:16;;;;;;;5.47;4.00;;;6.50;99.90;;;;;;5032793;28;20079;-71
2021/12/12 11:31:48;;;;;;;3.92;3.55;;;6.70;99.90;;;;;;5032495;28;20025;-71
2021/12/12 11:34:15;;;;;;;6.97;4.70;;;6.60;99.90;;;;;;5032608;28;20036;-72
2021/12/12 11:37:11;;;;;;;4.90;3.90;;;6.50;99.90;;;;;;5032274;28;20033;-71
2021/12/12 11:40:02;;;;;;;6.38;4.25;;;6.40;99.90;;;;;;5032375;28;20108;-70
2021/12/12 11:42:37;;;;;;;4.75;3.97;;;6.70;99.90;;;;;;5032562;28;20017;-72
2021/12/12 11:45:21;;;;;;;4.68;4.28;;;6.60;99.90;;;;;;5031782;28;20118;-71
2021/12/12 11:47:57;;;;;;;4.43;3.95;;;6.40;99.90;;;;;;5030939;28;20037;-71
2021/12/12 11:50:25;;;;;;;3.85;3.55;;;6.30;99.90;;;;;;5031281;28;20083;-70
2021/12/12 11:53:00;;;;;;;4.43;3.92;;;6.30;99.90;;;;;;5030983;28;20075;-71
2021/12/12 11:56:07;;;;;;;4.18;3.72;;;6.00;99.90;;;;;;5030434;28;20111;-70
2021/12/12 11:59:08;;;;;;;4.07;3.67;;;6.20;99.90;;;;;;4992338;28;20053;-71
2021/12/12 12:01:57;;;;;;;4.65;3.90;;;7.10;99.90;;;;;;5030656;28;20072;-70
2021/12/12 12:04:47;;;;;;;5.32;3.65;;;6.90;99.90;;;;;;5030051;28;20033;-73
2021/12/12 12:07:37;;;;;;;3.90;3.40;;;7.20;99.90;;;;;;5032809;28;20030;-75
2021/12/12 12:10:06;;;;;;;6.00;3.70;;;7.20;99.90;;;;;;5032139;28;20025;-75
2021/12/12 12:12:52;;;;;;;3.80;3.42;;;6.90;99.90;;;;;;5051974;28;20438;-74
2021/12/12 12:15:46;;;;;;;4.85;3.70;;;7.50;99.90;;;;;;5051621;28;20107;-74
2021/12/12 12:18:37;;;;;;;4.07;3.67;;;8.20;99.90;;;;;;5031354;28;20026;-75
2021/12/12 12:21:14;;;;;;;6.30;4.05;;;8.60;99.90;;;;;;5031863;28;20120;-75
2021/12/12 12:26:51;;;;;;;5.03;3.63;;;8.00;99.90;;;;;;5029477;28;20163;-72
2021/12/12 12:29:30;;;;;;;5.10;3.70;;;8.20;99.90;;;;;;5013403;28;20036;-71
2021/12/12 12:32:05;;;;;;;4.22;3.67;;;8.80;99.90;;;;;;5031203;28;20108;-72
2021/12/12 12:35:21;;;;;;;4.90;3.30;;;8.90;99.90;;;;;;5031061;28;20075;-72
2021/12/12 12:38:20;;;;;;;3.70;3.40;;;9.80;99.90;;;;;;5031919;28;20035;-75
2021/12/12 12:41:23;;;;;;;7.60;3.42;;;8.70;99.90;;;;;;5013873;28;20025;-71
2021/12/12 12:44:11;;;;;;;3.42;3.13;;;9.00;99.90;;;;;;5031364;28;20113;-72
2021/12/12 12:46:55;;;;;;;3.00;2.80;;;9.60;99.90;;;;;;5030244;28;20446;-70
2021/12/12 12:49:59;;;;;;;3.10;2.83;;;8.90;99.90;;;;;;5031284;28;20117;-71
2021/12/12 12:52:53;;;;;;;5.75;3.50;;;8.80;99.90;;;;;;5031398;28;20026;-71
2021/12/12 12:55:40;;;;;;;4.15;3.75;;;8.80;99.90;;;;;;5030763;28;20626;-72
2021/12/12 12:58:24;;;;;;;5.05;3.30;;;8.90;99.90;;;;;;5031067;28;20072;-72
2021/12/12 13:00:53;;;;;;;3.47;3.17;;;8.10;99.90;;;;;;5031152;28;20021;-71
2021/12/12 13:03:28;;;;;;;3.95;3.55;;;7.90;99.90;;;;;;5031116;28;20101;-70
2021/12/12 13:06:38;;;;;;;4.40;3.42;;;7.30;99.90;;;;;;5012603;28;20510;-72
2021/12/12 13:09:35;;;;;;;4.72;3.78;;;7.60;99.90;;;;;;5030888;28;20037;-71
2021/12/12 13:12:33;;;;;;;4.28;3.47;;;7.60;99.90;;;;;;5010536;28;20507;-71
2021/12/12 13:15:35;;;;;;;4.88;3.55;;;7.40;99.90;;;;;;5053236;28;20438;-70
2021/12/12 13:18:07;;;;;;;3.90;3.60;;;7.20;99.90;;;;;;5033431;28;20032;-71
2021/12/12 13:21:11;;;;;;;7.20;3.50;;;8.00;99.90;;;;;;5033521;28;20026;-71
2021/12/12 13:23:47;;;;;;;3.28;3.00;;;7.20;99.90;;;;;;5033810;28;20027;-71
2021/12/12 13:26:18;;;;;;;3.63;3.30;;;7.90;99.90;;;;;;5030234;28;20028;-71
2021/12/12 13:28:56;;;;;;;3.30;2.80;;;7.80;99.90;;;;;;5031200;28;20025;-71
2021/12/12 13:31:39;;;;;;;3.28;2.97;;;7.60;99.90;;;;;;5031578;28;20029;-71
2021/12/12 13:34:23;;;;;;;;;;;7.40;99.90;;;;;;5031884;28;20029;-71
2021/12/12 13:36:57;;;;;;;3.92;3.35;;;7.40;99.90;;;;;;5032030;28;19913;-71
2021/12/12 13:39:42;;;;;;;4.07;3.20;;;7.70;99.90;;;;;;5034671;28;20399;-69
2021/12/12 13:42:27;;;;;;;4.30;3.47;;;7.70;99.90;;;;;;5016706;28;20442;-69
2021/12/12 13:45:02;;;;;;;4.47;3.58;;;7.70;99.90;;;;;;5033940;28;21241;-69
2021/12/12 13:48:03;;;;;;;4.03;3.30;;;7.90;99.90;;;;;;5032440;28;20047;-69
2021/12/12 13:51:03;;;;;;;3.25;2.90;;;7.80;99.90;;;;;;5029380;28;20480;-68
2021/12/12 13:53:47;;;;;;;3.53;3.10;;;8.50;99.90;;;;;;5048545;28;20028;-69
2021/12/12 13:56:21;;;;;;;4.03;3.08;;;8.30;99.90;;;;;;5047123;28;20442;-70
2021/12/12 13:58:57;;;;;;;4.07;3.00;;;7.80;99.90;;;;;;5044318;28;20035;-67